Time;durP1;ratioP1;P1;durP2;ratioP2;P2;SDS_P1;SDS_P2;PMS_P1;PMS_P2;Temp;Humidity;BMP_temperature;BMP_pressure;BME280_temperature;BME280_humidity;BME280_pressure;Samples;Min_cycle;Max_cycle;Signal;HPM_P1;HPM_P2
2022/11/02 00:01:37;;;;;;;20.48;4.10;;;13.30;47.40;;;;;;5031116;28;20398;-73
2022/11/02 00:04:03;;;;;;;24.00;4.82;;;13.20;47.60;;;;;;5032481;28;20437;-72
2022/11/02 00:06:28;;;;;;;17.10;4.00;;;13.20;47.50;;;;;;5033587;28;20779;-72
2022/11/02 00:08:54;;;;;;;17.58;4.15;;;13.20;47.60;;;;;;5048042;28;20387;-72
2022/11/02 00:11:19;;;;;;;17.00;4.20;;;13.30;47.50;;;;;;5048186;28;20395;-72
2022/11/02 00:13:45;;;;;;;19.57;4.00;;;13.40;47.50;;;;;;5066618;22;20431;-73
2022/11/02 00:16:13;;;;;;;21.53;3.80;;;13.40;48.00;;;;;;5071165;28;20429;-73
2022/11/02 00:18:39;;;;;;;20.90;4.30;;;13.50;47.60;;;;;;5071952;28;20469;-74
2022/11/02 00:21:05;;;;;;;17.55;3.85;;;13.50;47.80;;;;;;5070270;28;20387;-74
2022/11/02 00:23:31;;;;;;;16.73;4.30;;;13.50;48.60;;;;;;5070761;28;20453;-72
2022/11/02 00:25:58;;;;;;;15.45;3.20;;;13.60;49.70;;;;;;5071190;28;20453;-73
2022/11/02 00:28:23;;;;;;;17.90;4.00;;;13.60;49.00;;;;;;5070882;28;20816;-72
2022/11/02 00:30:49;;;;;;;18.55;3.50;;;13.80;47.20;;;;;;5070623;28;20462;-72
2022/11/02 00:33:14;;;;;;;21.77;3.90;;;13.80;47.10;;;;;;5070575;28;20474;-73
2022/11/02 00:35:41;;;;;;;14.57;3.57;;;13.80;46.60;;;;;;5070950;28;20415;-72
2022/11/02 00:38:06;;;;;;;16.25;3.80;;;13.90;45.90;;;;;;5070595;28;20441;-73
2022/11/02 00:40:32;;;;;;;15.85;4.00;;;13.90;46.40;;;;;;5070776;28;20383;-73
2022/11/02 00:42:58;;;;;;;13.55;3.25;;;13.90;46.50;;;;;;5070231;28;20395;-73
2022/11/02 00:45:23;;;;;;;15.75;3.13;;;13.90;46.50;;;;;;5070949;28;20416;-73
2022/11/02 00:47:49;;;;;;;16.30;3.67;;;14.00;46.50;;;;;;5070396;28;20387;-74
2022/11/02 00:50:16;;;;;;;16.88;3.70;;;13.90;47.30;;;;;;5068995;28;20479;-74
2022/11/02 00:52:41;;;;;;;16.80;3.30;;;14.00;46.20;;;;;;5069948;28;20391;-72
2022/11/02 00:55:09;;;;;;;15.03;3.60;;;13.90;46.90;;;;;;5070556;28;20400;-71
2022/11/02 00:57:35;;;;;;;16.83;3.70;;;13.90;46.50;;;;;;5069328;28;20399;-74
2022/11/02 01:00:00;;;;;;;13.27;2.95;;;13.90;46.10;;;;;;5071717;28;20383;-72
2022/11/02 01:02:26;;;;;;;15.90;3.42;;;13.90;46.50;;;;;;5074121;28;20376;-73
2022/11/02 01:04:52;;;;;;;15.55;3.80;;;13.90;46.50;;;;;;5072922;28;20380;-73
2022/11/02 01:07:17;;;;;;;16.23;3.53;;;13.90;46.30;;;;;;5074665;28;20820;-72
2022/11/02 01:09:43;;;;;;;24.77;4.40;;;13.90;46.00;;;;;;5073998;28;20860;-73
2022/11/02 01:12:08;;;;;;;15.30;3.87;;;13.80;46.30;;;;;;5074518;28;20392;-74
2022/11/02 01:14:34;;;;;;;16.73;3.70;;;13.80;45.90;;;;;;5072314;28;20396;-73
2022/11/02 01:17:00;;;;;;;19.10;3.63;;;13.70;46.70;;;;;;5077069;28;20760;-73
2022/11/02 01:19:25;;;;;;;16.83;3.65;;;13.60;47.30;;;;;;5078190;28;20915;-73
2022/11/02 01:21:51;;;;;;;17.67;4.00;;;13.50;47.70;;;;;;5078588;28;20393;-74
2022/11/02 01:24:16;;;;;;;13.33;3.30;;;13.60;47.10;;;;;;5079823;28;20376;-75
2022/11/02 01:26:42;;;;;;;14.40;3.30;;;13.70;46.70;;;;;;5083213;28;20384;-74
2022/11/02 01:29:07;;;;;;;14.97;3.70;;;13.80;45.70;;;;;;5078153;28;20465;-72
2022/11/02 01:31:33;;;;;;;13.35;3.20;;;13.80;45.10;;;;;;5072355;28;20887;-72
2022/11/02 01:33:59;;;;;;;14.70;3.00;;;14.00;44.50;;;;;;5073488;28;20391;-72
2022/11/02 01:36:25;;;;;;;15.35;3.72;;;14.10;43.80;;;;;;5073255;28;20379;-73
2022/11/02 01:38:50;;;;;;;17.48;3.30;;;14.20;43.40;;;;;;5073382;28;20471;-73
2022/11/02 01:41:16;;;;;;;12.55;3.22;;;14.30;42.50;;;;;;5073708;28;20376;-73
2022/11/02 01:43:44;;;;;;;12.55;3.28;;;14.40;41.90;;;;;;5073777;28;20384;-73
2022/11/02 01:46:10;;;;;;;16.45;3.97;;;14.40;41.50;;;;;;5072793;28;20426;-73
2022/11/02 01:49:04;;;;;;;14.43;3.15;;;14.40;41.40;;;;;;5074902;28;20411;-74
2022/11/02 01:51:34;;;;;;;18.70;3.35;;;14.50;41.10;;;;;;5074808;28;20475;-73
2022/11/02 01:54:14;;;;;;;12.45;3.70;;;14.50;41.20;;;;;;5073655;28;20387;-73
2022/11/02 01:56:43;;;;;;;17.63;3.70;;;14.50;41.20;;;;;;5072968;28;20411;-73
2022/11/02 01:59:14;;;;;;;15.02;3.33;;;14.50;41.10;;;;;;5071859;28;20419;-73
2022/11/02 02:01:39;;;;;;;14.35;3.40;;;14.40;41.50;;;;;;5072895;28;20384;-73
2022/11/02 02:04:05;;;;;;;11.68;3.40;;;14.30;41.50;;;;;;5073047;28;20460;-73
2022/11/02 02:06:31;;;;;;;17.05;3.55;;;14.10;42.60;;;;;;5066020;28;20425;-73
2022/11/02 02:09:01;;;;;;;17.13;4.10;;;13.90;43.80;;;;;;5054080;28;20896;-71
2022/11/02 02:11:32;;;;;;;15.90;4.07;;;13.80;44.50;;;;;;5064979;28;20753;-74
2022/11/02 02:14:05;;;;;;;15.90;3.70;;;13.70;45.30;;;;;;5066604;28;20496;-72
2022/11/02 02:16:30;;;;;;;13.40;3.33;;;13.70;45.30;;;;;;5053759;28;20390;-72
2022/11/02 02:18:59;;;;;;;17.43;3.60;;;13.70;45.60;;;;;;5068459;28;20404;-73
2022/11/02 02:21:44;;;;;;;18.75;3.53;;;13.70;45.70;;;;;;5068916;28;20397;-72
2022/11/02 02:24:35;;;;;;;11.15;3.50;;;13.70;46.00;;;;;;5069205;28;20400;-73
2022/11/02 02:27:38;;;;;;;17.80;3.50;;;13.60;46.10;;;;;;5066936;28;20401;-72
2022/11/02 02:30:05;;;;;;;12.13;3.60;;;13.70;45.70;;;;;;5072089;28;20396;-73
2022/11/02 02:32:54;;;;;;;19.45;3.40;;;13.70;46.30;;;;;;5056289;28;20451;-72
2022/11/02 02:35:25;;;;;;;17.60;3.63;;;13.80;45.90;;;;;;5052045;28;20390;-73
2022/11/02 02:37:56;;;;;;;14.77;3.70;;;13.80;45.60;;;;;;5052480;28;20400;-72
2022/11/02 02:40:59;;;;;;;15.13;3.78;;;13.90;44.90;;;;;;5052679;28;20394;-72
2022/11/02 02:43:33;;;;;;;20.15;4.10;;;14.00;44.60;;;;;;5043244;28;20392;-72
2022/11/02 02:46:15;;;;;;;14.73;3.40;;;14.00;44.10;;;;;;5051206;28;20500;-72
2022/11/02 02:48:44;;;;;;;14.98;3.53;;;13.90;44.50;;;;;;5052068;28;20378;-72
2022/11/02 02:51:17;;;;;;;12.75;3.28;;;13.90;44.50;;;;;;5051864;28;20430;-71
2022/11/02 02:53:47;;;;;;;14.07;3.47;;;13.90;44.20;;;;;;5051872;28;20782;-72
2022/11/02 02:56:16;;;;;;;13.80;3.30;;;13.90;44.20;;;;;;5051704;28;20733;-71
2022/11/02 02:58:57;;;;;;;12.67;3.80;;;13.90;44.10;;;;;;5051496;28;20412;-74
2022/11/02 03:01:23;;;;;;;11.68;3.28;;;13.80;44.50;;;;;;5051457;28;20392;-74
2022/11/02 03:03:49;;;;;;;14.23;3.10;;;13.70;44.30;;;;;;5051547;28;20386;-72
2022/11/02 03:06:21;;;;;;;13.07;3.17;;;13.60;44.20;;;;;;5051688;28;20476;-72
2022/11/02 03:09:06;;;;;;;9.95;3.30;;;13.60;44.50;;;;;;5051561;28;20382;-72
2022/11/02 03:11:33;;;;;;;14.25;3.70;;;13.50;44.90;;;;;;5051222;28;20794;-73
2022/11/02 03:14:31;;;;;;;15.88;3.65;;;13.60;44.90;;;;;;5051280;28;20400;-74
2022/11/02 03:17:28;;;;;;;16.20;3.10;;;13.60;44.50;;;;;;5045581;28;20440;-71
2022/11/02 03:20:27;;;;;;;13.02;3.42;;;13.50;44.70;;;;;;5047227;28;20389;-72
2022/11/02 03:23:01;;;;;;;13.65;3.20;;;13.50;44.80;;;;;;5050541;28;20381;-72
2022/11/02 03:25:33;;;;;;;12.13;3.20;;;13.60;44.00;;;;;;5051568;28;20382;-73
2022/11/02 03:28:16;;;;;;;11.90;3.20;;;13.60;44.00;;;;;;5053449;28;20892;-73
2022/11/02 03:30:45;;;;;;;17.15;3.97;;;13.50;43.90;;;;;;5054804;28;20389;-74
2022/11/02 03:33:17;;;;;;;14.03;3.17;;;13.50;44.20;;;;;;5057821;28;20401;-74
2022/11/02 03:36:02;;;;;;;13.68;3.03;;;13.50;44.60;;;;;;5055627;28;20389;-73
2022/11/02 03:38:37;;;;;;;12.35;3.22;;;13.40;45.10;;;;;;5051233;28;20463;-72
2022/11/02 03:41:03;;;;;;;14.18;3.33;;;13.30;45.60;;;;;;5050877;28;20380;-73
2022/11/02 03:43:33;;;;;;;9.65;2.85;;;13.20;46.50;;;;;;5051279;28;20386;-73
2022/11/02 03:46:02;;;;;;;11.98;3.40;;;13.20;46.60;;;;;;5051176;28;20806;-73
2022/11/02 03:48:36;;;;;;;13.77;3.20;;;13.20;46.80;;;;;;5051149;28;20481;-74
2022/11/02 03:51:05;;;;;;;14.68;3.10;;;13.10;47.30;;;;;;5050768;28;20389;-74
2022/11/02 03:53:47;;;;;;;16.05;3.78;;;13.20;46.90;;;;;;5050894;28;20472;-72
2022/11/02 03:56:33;;;;;;;15.35;3.10;;;13.20;46.70;;;;;;5051639;28;20382;-73
2022/11/02 03:58:58;;;;;;;13.13;3.00;;;13.20;47.10;;;;;;5051390;28;20806;-73
2022/11/02 04:01:26;;;;;;;15.88;3.40;;;13.20;47.90;;;;;;5051100;28;20412;-73
2022/11/02 04:03:51;;;;;;;10.10;2.90;;;13.10;47.60;;;;;;5051677;28;20396;-72
2022/11/02 04:06:17;;;;;;;14.37;3.70;;;13.10;46.30;;;;;;5050988;28;20388;-73
2022/11/02 04:08:45;;;;;;;14.73;3.30;;;13.20;46.20;;;;;;5050880;28;20389;-73
2022/11/02 04:16:39;;;;;;;18.55;3.67;;;13.10;45.30;;;;;;5050711;28;20400;-72
2022/11/02 04:27:18;;;;;;;13.77;3.30;;;13.00;45.90;;;;;;5050593;28;20392;-73
2022/11/02 04:29:43;;;;;;;13.80;3.40;;;13.00;46.00;;;;;;5050685;28;20389;-73
2022/11/02 04:32:09;;;;;;;18.83;3.67;;;13.00;46.50;;;;;;5050726;28;20408;-73
2022/11/02 04:34:35;;;;;;;15.55;3.30;;;12.90;46.90;;;;;;5052844;28;20468;-73
2022/11/02 04:37:00;;;;;;;11.25;3.10;;;12.80;47.60;;;;;;5054707;28;20973;-74
2022/11/02 04:39:26;;;;;;;12.93;3.27;;;12.80;47.50;;;;;;5054515;28;20927;-73
2022/11/02 04:41:51;;;;;;;9.73;2.90;;;12.80;47.80;;;;;;5054044;28;20563;-72
2022/11/02 04:44:17;;;;;;;18.80;3.60;;;12.90;47.20;;;;;;5054140;28;20754;-72
2022/11/02 04:46:43;;;;;;;14.97;3.40;;;13.00;46.80;;;;;;5054205;28;20391;-73
2022/11/02 04:49:10;;;;;;;15.10;3.15;;;13.00;47.20;;;;;;5054118;28;20679;-72
2022/11/02 04:51:39;;;;;;;10.43;3.17;;;12.90;47.60;;;;;;5053916;28;20876;-72
2022/11/02 04:54:05;;;;;;;17.20;3.33;;;12.90;47.40;;;;;;5054149;28;20393;-71
2022/11/02 04:56:30;;;;;;;13.50;3.30;;;12.90;47.20;;;;;;5052887;28;20390;-72
2022/11/02 04:58:58;;;;;;;19.65;4.30;;;12.90;47.30;;;;;;5053992;28;20437;-71
2022/11/02 05:01:26;;;;;;;10.77;3.63;;;12.90;47.90;;;;;;5054078;28;20423;-74
2022/11/02 05:03:53;;;;;;;22.02;4.05;;;12.80;48.70;;;;;;5052636;28;20404;-73
2022/11/02 05:06:20;;;;;;;18.67;3.33;;;12.80;49.40;;;;;;5054289;28;20443;-72
2022/11/02 05:08:46;;;;;;;15.25;3.47;;;12.80;49.50;;;;;;5053571;28;20386;-71
2022/11/02 05:11:12;;;;;;;18.40;3.90;;;12.80;48.60;;;;;;5053862;28;20727;-70
2022/11/02 05:13:39;;;;;;;11.37;3.10;;;13.00;47.70;;;;;;5054891;28;20433;-72
2022/11/02 05:16:06;;;;;;;20.83;3.78;;;13.00;46.80;;;;;;5054429;28;20385;-72
2022/11/02 05:18:32;;;;;;;15.35;3.75;;;13.20;45.90;;;;;;5053798;28;20416;-73
2022/11/02 05:21:00;;;;;;;13.90;3.33;;;13.10;45.90;;;;;;5052398;28;20385;-75
2022/11/02 05:23:27;;;;;;;21.30;4.40;;;13.10;45.70;;;;;;5053647;28;20473;-73
2022/11/02 05:25:58;;;;;;;17.55;3.60;;;13.20;45.30;;;;;;5053627;28;20443;-72
2022/11/02 05:28:25;;;;;;;15.95;3.83;;;13.30;44.70;;;;;;5052439;28;20401;-74
2022/11/02 05:30:51;;;;;;;16.30;3.30;;;13.30;44.00;;;;;;5052146;28;20397;-72
2022/11/02 05:33:21;;;;;;;17.30;3.80;;;13.20;44.20;;;;;;5052544;28;20400;-73
2022/11/02 05:35:47;;;;;;;13.02;3.25;;;13.10;45.00;;;;;;5052474;28;20393;-73
2022/11/02 05:38:12;;;;;;;16.27;3.30;;;13.20;44.60;;;;;;5053171;28;20773;-74
2022/11/02 05:40:39;;;;;;;15.63;3.67;;;13.20;43.50;;;;;;5053403;28;20822;-74
2022/11/02 05:43:06;;;;;;;23.55;3.60;;;13.20;43.60;;;;;;5053045;28;20377;-73
2022/11/02 05:45:32;;;;;;;22.23;3.90;;;13.10;44.40;;;;;;5052492;28;20888;-74
2022/11/02 05:48:02;;;;;;;16.50;3.40;;;13.00;44.50;;;;;;5052961;28;20436;-73
2022/11/02 05:50:29;;;;;;;17.42;3.50;;;13.00;45.00;;;;;;5053046;28;20457;-71
2022/11/02 05:52:54;;;;;;;22.80;3.42;;;12.90;45.10;;;;;;5052913;28;20409;-74
2022/11/02 05:55:20;;;;;;;24.77;4.10;;;12.90;44.60;;;;;;5053109;28;20749;-72
2022/11/02 05:57:54;;;;;;;20.70;3.97;;;12.90;45.10;;;;;;5053020;28;20484;-72
2022/11/02 06:00:20;;;;;;;20.17;3.80;;;12.90;45.00;;;;;;5053476;28;20377;-72
2022/11/02 06:02:47;;;;;;;17.88;3.88;;;12.90;44.90;;;;;;5052606;28;20527;-72
2022/11/02 06:05:13;;;;;;;17.08;3.35;;;12.80;45.30;;;;;;5051683;28;20411;-74
2022/11/02 06:07:38;;;;;;;25.60;4.47;;;12.70;45.50;;;;;;5052650;28;20389;-73
2022/11/02 06:10:04;;;;;;;18.80;3.50;;;12.70;46.40;;;;;;5053516;28;20931;-72
2022/11/02 06:12:30;;;;;;;15.23;3.50;;;12.60;46.30;;;;;;5053837;28;20472;-73
2022/11/02 06:14:55;;;;;;;19.73;4.00;;;12.60;46.70;;;;;;5055496;28;20429;-73
2022/11/02 06:17:21;;;;;;;23.43;4.30;;;12.60;46.40;;;;;;5062075;28;20467;-73
2022/11/02 06:19:46;;;;;;;17.60;3.90;;;12.60;46.60;;;;;;5060050;28;20389;-72
2022/11/02 06:22:12;;;;;;;21.65;3.85;;;12.50;47.70;;;;;;5060111;28;20412;-73
2022/11/02 06:24:38;;;;;;;18.67;3.58;;;12.50;47.40;;;;;;5060351;28;20720;-73
2022/11/02 06:27:06;;;;;;;21.10;3.90;;;12.50;47.20;;;;;;5056674;28;20381;-73
2022/11/02 06:29:32;;;;;;;21.25;3.92;;;12.50;47.10;;;;;;5053496;28;20459;-74
2022/11/02 06:31:58;;;;;;;24.95;4.05;;;12.50;47.10;;;;;;5053251;28;20397;-74
2022/11/02 06:34:23;;;;;;;17.55;3.83;;;12.50;47.20;;;;;;5052314;28;20393;-73
2022/11/02 06:36:49;;;;;;;21.02;3.92;;;12.50;47.10;;;;;;5052563;28;20824;-73
2022/11/02 06:39:14;;;;;;;16.77;3.60;;;12.50;47.20;;;;;;5054543;28;20810;-74
2022/11/02 06:41:40;;;;;;;21.40;3.70;;;12.50;46.80;;;;;;5059817;28;20369;-73
2022/11/02 06:44:05;;;;;;;17.07;3.60;;;12.50;47.30;;;;;;5059043;28;20476;-74
2022/11/02 06:46:31;;;;;;;22.10;3.80;;;12.50;47.50;;;;;;5056440;28;20531;-74
2022/11/02 06:48:57;;;;;;;21.30;4.40;;;12.50;47.70;;;;;;5056041;28;20385;-74
2022/11/02 06:51:23;;;;;;;19.70;3.97;;;12.50;48.50;;;;;;5055984;28;20792;-72
2022/11/02 06:53:48;;;;;;;24.37;4.00;;;12.40;48.90;;;;;;5053958;28;20401;-74
2022/11/02 06:56:14;;;;;;;23.73;4.50;;;12.50;48.40;;;;;;5052737;28;20377;-73
2022/11/02 06:58:39;;;;;;;18.03;3.80;;;12.60;47.50;;;;;;5051471;28;20779;-73
2022/11/02 07:01:07;;;;;;;19.80;3.95;;;12.70;47.20;;;;;;5052048;28;20381;-72
2022/11/02 07:03:33;;;;;;;20.60;3.97;;;12.80;46.60;;;;;;5052648;28;20385;-73
2022/11/02 07:05:59;;;;;;;26.02;4.47;;;12.90;46.40;;;;;;5053552;28;20439;-73
2022/11/02 07:08:25;;;;;;;28.60;5.03;;;12.90;45.90;;;;;;5053114;28;20778;-74
2022/11/02 07:10:50;;;;;;;17.17;3.90;;;13.00;44.50;;;;;;5053563;28;20385;-73
2022/11/02 07:13:16;;;;;;;17.50;4.20;;;13.00;44.70;;;;;;5051134;28;20409;-73
2022/11/02 07:15:42;;;;;;;25.13;4.10;;;13.00;44.50;;;;;;5052792;28;20543;-73
2022/11/02 07:18:07;;;;;;;24.92;4.80;;;13.00;44.60;;;;;;5051880;28;20890;-73
2022/11/02 07:20:34;;;;;;;17.83;3.80;;;13.00;45.20;;;;;;5052016;28;20439;-73
2022/11/02 07:23:00;;;;;;;32.15;4.82;;;13.00;44.60;;;;;;5051715;28;20455;-73
2022/11/02 07:25:29;;;;;;;25.67;4.90;;;12.90;45.00;;;;;;5052138;28;20401;-73
2022/11/02 07:27:55;;;;;;;15.77;3.70;;;12.90;44.80;;;;;;5051624;28;21008;-73
2022/11/02 07:30:21;;;;;;;24.50;3.78;;;12.90;44.50;;;;;;5051836;28;20460;-72
2022/11/02 07:32:47;;;;;;;22.13;3.67;;;12.90;44.30;;;;;;5050882;28;20378;-72
2022/11/02 07:35:14;;;;;;;18.60;3.80;;;12.90;44.70;;;;;;5051340;28;20863;-72
2022/11/02 07:37:40;;;;;;;20.92;3.78;;;12.90;44.90;;;;;;5050988;28;20398;-73
2022/11/02 07:40:08;;;;;;;17.98;3.85;;;12.90;45.30;;;;;;5050305;28;20390;-73
2022/11/02 07:42:34;;;;;;;20.63;3.45;;;12.80;45.20;;;;;;5051378;28;20409;-72
2022/11/02 07:44:59;;;;;;;21.37;3.90;;;12.90;45.10;;;;;;5051662;28;20393;-74
2022/11/02 07:47:25;;;;;;;16.10;3.70;;;12.90;44.90;;;;;;5049880;28;20878;-72
2022/11/02 07:49:51;;;;;;;19.63;3.40;;;13.00;45.20;;;;;;5051500;28;20381;-73
2022/11/02 07:52:17;;;;;;;15.30;3.60;;;13.00;44.90;;;;;;5051130;28;20389;-72
2022/11/02 07:54:42;;;;;;;19.03;3.10;;;13.00;45.00;;;;;;5050804;28;20746;-72
2022/11/02 07:57:08;;;;;;;23.47;3.93;;;13.00;45.20;;;;;;5050884;28;20886;-73
2022/11/02 07:59:35;;;;;;;16.80;3.30;;;13.00;45.40;;;;;;5050832;28;20393;-74
2022/11/02 08:02:01;;;;;;;20.20;3.70;;;13.10;43.90;;;;;;5050568;28;20749;-73
2022/11/02 08:04:26;;;;;;;21.20;4.15;;;13.30;42.40;;;;;;5050645;28;20389;-72
2022/11/02 08:06:52;;;;;;;19.52;3.78;;;13.40;42.30;;;;;;5050472;28;20460;-72
2022/11/02 08:09:18;;;;;;;14.80;3.50;;;13.30;42.80;;;;;;5051041;28;20429;-74
2022/11/02 08:11:44;;;;;;;17.42;4.30;;;13.30;43.10;;;;;;5049209;28;20393;-73
2022/11/02 08:14:09;;;;;;;20.08;4.03;;;13.30;42.90;;;;;;5050644;28;20494;-73
2022/11/02 08:16:35;;;;;;;14.40;3.83;;;13.30;42.10;;;;;;5050852;28;20439;-73
2022/11/02 08:19:00;;;;;;;16.07;3.23;;;13.30;41.90;;;;;;5050695;28;20391;-72
2022/11/02 08:21:26;;;;;;;22.57;4.00;;;13.30;42.20;;;;;;5050796;28;20386;-72
2022/11/02 08:23:52;;;;;;;18.67;3.80;;;13.40;42.30;;;;;;5049650;28;20871;-72
2022/11/02 08:26:18;;;;;;;23.98;4.55;;;13.40;42.50;;;;;;5050987;28;20405;-72
2022/11/02 08:28:44;;;;;;;18.52;3.90;;;13.40;42.80;;;;;;5050322;28;20385;-73
2022/11/02 08:31:14;;;;;;;16.35;4.07;;;13.50;41.90;;;;;;5050800;28;20400;-72
2022/11/02 08:33:40;;;;;;;21.88;3.90;;;13.50;41.90;;;;;;5050702;28;20377;-73
2022/11/02 08:36:06;;;;;;;12.95;3.38;;;13.60;41.20;;;;;;5050954;28;20394;-73
2022/11/02 08:38:32;;;;;;;19.42;3.78;;;13.60;40.40;;;;;;5049268;28;20404;-73
2022/11/02 08:40:58;;;;;;;19.60;4.30;;;13.80;40.90;;;;;;5049950;28;20419;-73
2022/11/02 08:43:24;;;;;;;16.92;3.30;;;14.00;39.10;;;;;;5050526;28;20381;-72
2022/11/02 08:45:50;;;;;;;19.38;3.78;;;14.10;38.60;;;;;;5050769;28;20385;-73
2022/11/02 08:48:16;;;;;;;16.60;4.20;;;14.20;38.30;;;;;;5050310;28;20417;-72
2022/11/02 08:50:41;;;;;;;16.20;3.63;;;14.20;37.80;;;;;;5050582;28;20484;-72
2022/11/02 08:53:07;;;;;;;23.02;3.80;;;14.20;37.90;;;;;;5050156;28;20378;-72
2022/11/02 08:55:33;;;;;;;17.65;3.95;;;14.20;37.60;;;;;;5049213;28;20836;-71
2022/11/02 08:57:59;;;;;;;22.85;4.07;;;14.30;37.40;;;;;;5049833;28;20942;-72
2022/11/02 09:00:27;;;;;;;18.60;3.78;;;14.50;37.00;;;;;;5050242;28;20393;-73
2022/11/02 09:03:04;;;;;;;15.02;3.72;;;14.50;36.60;;;;;;5049753;28;20719;-72
2022/11/02 09:05:36;;;;;;;17.95;4.00;;;14.60;35.90;;;;;;5049705;28;20510;-73
2022/11/02 09:08:04;;;;;;;19.90;4.40;;;14.60;36.20;;;;;;5050574;28;20913;-73
2022/11/02 09:10:32;;;;;;;16.00;3.78;;;14.60;36.40;;;;;;5051772;28;20385;-72
2022/11/02 09:12:59;;;;;;;15.10;3.45;;;14.50;36.40;;;;;;5057260;28;20389;-73
2022/11/02 09:15:25;;;;;;;16.05;3.55;;;14.50;36.20;;;;;;5054271;28;20758;-72
2022/11/02 09:17:50;;;;;;;14.02;3.80;;;14.60;35.60;;;;;;5050929;28;20405;-73
2022/11/02 09:20:17;;;;;;;20.08;4.63;;;14.70;35.20;;;;;;5048866;28;20377;-72
2022/11/02 09:22:43;;;;;;;20.65;3.63;;;14.80;35.40;;;;;;5053418;28;20427;-72
2022/11/02 09:25:09;;;;;;;16.30;3.58;;;14.80;34.40;;;;;;5053440;28;20476;-71
2022/11/02 09:27:35;;;;;;;21.02;3.97;;;14.80;34.30;;;;;;5053297;28;20446;-72
2022/11/02 09:30:02;;;;;;;18.13;3.23;;;14.80;33.80;;;;;;5053410;28;21101;-72
2022/11/02 09:32:32;;;;;;;16.27;3.10;;;14.80;34.10;;;;;;5052011;28;20394;-72
2022/11/02 09:35:01;;;;;;;17.02;3.40;;;14.90;34.50;;;;;;5052282;28;20476;-72
2022/11/02 09:37:27;;;;;;;15.07;3.63;;;14.90;34.50;;;;;;5053332;28;20414;-72
2022/11/02 09:39:54;;;;;;;17.00;3.78;;;14.90;33.30;;;;;;5051784;28;20435;-73
2022/11/02 09:42:45;;;;;;;20.70;4.10;;;14.70;33.70;;;;;;5051710;28;20506;-74
2022/11/02 09:45:17;;;;;;;15.93;3.70;;;14.60;33.80;;;;;;5051670;28;20437;-72
2022/11/02 09:47:49;;;;;;;24.02;3.90;;;14.60;34.00;;;;;;5053110;28;20463;-72
2022/11/02 09:50:20;;;;;;;17.10;3.60;;;14.60;34.00;;;;;;5053298;28;20389;-71
2022/11/02 09:52:54;;;;;;;16.58;3.42;;;14.60;34.20;;;;;;5052970;28;20396;-73
2022/11/02 09:55:28;;;;;;;20.02;3.53;;;14.60;33.30;;;;;;5053816;28;20514;-73
2022/11/02 09:58:11;;;;;;;20.35;3.90;;;14.60;33.20;;;;;;5054480;28;20932;-72
2022/11/02 10:00:40;;;;;;;19.20;3.43;;;14.70;33.60;;;;;;5054797;28;20448;-72
2022/11/02 10:03:27;;;;;;;13.80;4.00;;;14.80;33.10;;;;;;5051986;28;20382;-73
2022/11/02 10:05:58;;;;;;;15.57;3.40;;;15.10;32.60;;;;;;5053827;28;20386;-73
2022/11/02 10:08:56;;;;;;;20.20;3.60;;;15.20;30.90;;;;;;5053988;28;20383;-73
2022/11/02 10:11:43;;;;;;;16.35;3.40;;;15.20;30.90;;;;;;5049671;28;20393;-73
2022/11/02 10:14:34;;;;;;;19.55;3.95;;;15.10;31.50;;;;;;5052042;28;20696;-73
2022/11/02 10:17:25;;;;;;;17.97;4.07;;;15.00;31.30;;;;;;5052333;28;20514;-73
2022/11/02 10:19:55;;;;;;;18.65;3.95;;;14.90;31.50;;;;;;5052365;28;20495;-72
2022/11/02 10:22:26;;;;;;;16.15;3.70;;;14.80;32.10;;;;;;5052259;28;20742;-72
2022/11/02 10:24:55;;;;;;;12.82;3.50;;;14.80;30.90;;;;;;5052429;28;20462;-73
2022/11/02 10:27:27;;;;;;;26.47;4.33;;;14.80;31.00;;;;;;5052391;28;20762;-72
2022/11/02 10:30:03;;;;;;;23.38;4.50;;;14.80;30.20;;;;;;5052891;28;20381;-73
2022/11/02 10:32:31;;;;;;;13.52;3.53;;;14.90;30.00;;;;;;5053181;28;20374;-72
2022/11/02 10:34:58;;;;;;;17.45;3.38;;;15.00;28.80;;;;;;5052619;28;20455;-73
2022/11/02 10:37:51;;;;;;;16.98;3.47;;;14.90;29.40;;;;;;5052480;28;20405;-73
2022/11/02 10:40:26;;;;;;;19.98;3.60;;;15.00;29.00;;;;;;5052540;28;20408;-73
2022/11/02 10:43:04;;;;;;;18.02;3.03;;;15.00;28.60;;;;;;5050362;28;20381;-73
2022/11/02 10:45:40;;;;;;;13.73;3.28;;;15.00;28.80;;;;;;5051931;28;20378;-73
2022/11/02 10:48:20;;;;;;;14.32;3.53;;;15.10;29.70;;;;;;5051928;28;20378;-72
2022/11/02 10:50:58;;;;;;;19.75;3.88;;;15.20;28.80;;;;;;5051704;28;20397;-72
2022/11/02 10:53:24;;;;;;;16.60;3.60;;;15.20;28.00;;;;;;5052091;28;20386;-73
2022/11/02 10:56:00;;;;;;;15.15;3.17;;;15.10;27.50;;;;;;5051543;28;20382;-71
2022/11/02 10:58:28;;;;;;;11.85;3.13;;;15.20;26.60;;;;;;5053018;28;20410;-73
2022/11/02 11:01:08;;;;;;;14.45;3.30;;;15.20;26.30;;;;;;5051719;28;20405;-73
2022/11/02 11:03:51;;;;;;;19.73;3.45;;;15.20;26.70;;;;;;5050301;28;20389;-71
2022/11/02 11:06:17;;;;;;;19.77;3.70;;;15.10;27.40;;;;;;5052275;28;20381;-73
2022/11/02 11:08:45;;;;;;;15.65;3.70;;;15.20;26.70;;;;;;5052033;28;20480;-72
2022/11/02 11:11:13;;;;;;;17.30;3.10;;;15.20;26.30;;;;;;5052131;28;20420;-74
2022/11/02 11:13:44;;;;;;;10.07;2.58;;;15.10;25.70;;;;;;5051813;28;20858;-72
2022/11/02 11:16:11;;;;;;;15.98;3.30;;;15.20;25.50;;;;;;5052221;28;20420;-73
2022/11/02 11:18:37;;;;;;;14.80;3.40;;;15.10;25.70;;;;;;5051852;28;20925;-73
2022/11/02 11:21:04;;;;;;;16.88;3.30;;;15.10;26.20;;;;;;5051647;28;20381;-73
2022/11/02 11:23:30;;;;;;;19.42;3.30;;;15.20;26.00;;;;;;5052058;28;20417;-72
2022/11/02 11:26:04;;;;;;;14.85;3.15;;;15.30;25.70;;;;;;5051646;28;20412;-74
2022/11/02 11:28:54;;;;;;;22.10;3.47;;;15.30;25.20;;;;;;5050757;28;20395;-72
2022/11/02 11:31:21;;;;;;;17.42;3.58;;;15.40;25.80;;;;;;5051483;28;20377;-72
2022/11/02 11:33:49;;;;;;;23.50;3.05;;;15.40;25.80;;;;;;5051798;28;20393;-73
2022/11/02 11:36:23;;;;;;;18.60;3.20;;;15.50;25.20;;;;;;5052151;28;20413;-74
2022/11/02 11:38:51;;;;;;;19.83;3.63;;;15.50;25.20;;;;;;5051714;28;20450;-72
2022/11/02 11:41:17;;;;;;;14.33;2.90;;;15.40;25.70;;;;;;5050675;28;20499;-73
2022/11/02 11:43:45;;;;;;;11.93;2.90;;;15.40;25.60;;;;;;5051762;28;20396;-73
2022/11/02 11:46:13;;;;;;;14.18;3.42;;;15.50;25.10;;;;;;5051989;28;20382;-73
2022/11/02 11:48:43;;;;;;;16.67;3.65;;;15.60;24.50;;;;;;5052433;28;20896;-73
2022/11/02 11:51:33;;;;;;;14.60;3.47;;;15.70;24.00;;;;;;5052452;28;21096;-71
2022/11/02 11:54:22;;;;;;;14.80;3.28;;;15.90;23.30;;;;;;5056354;28;20424;-73
2022/11/02 11:56:49;;;;;;;15.70;3.00;;;16.20;22.60;;;;;;5054000;28;20397;-72
2022/11/02 11:59:48;;;;;;;14.60;2.90;;;16.40;22.20;;;;;;5054255;28;20381;-74
2022/11/02 12:02:27;;;;;;;13.10;3.30;;;16.40;21.80;;;;;;5052279;28;20405;-73
2022/11/02 12:05:00;;;;;;;18.13;3.13;;;16.40;22.20;;;;;;5051543;28;20411;-73
2022/11/02 12:07:49;;;;;;;12.07;3.00;;;16.50;22.40;;;;;;5052664;28;20762;-74
2022/11/02 12:11:00;;;;;;;15.95;3.40;;;16.80;21.20;;;;;;5053464;28;20440;-74
2022/11/02 12:13:53;;;;;;;15.85;3.00;;;17.20;20.40;;;;;;5014964;28;20404;-74
2022/11/02 12:16:48;;;;;;;13.35;2.55;;;17.30;19.80;;;;;;5025491;28;20399;-73
2022/11/02 12:19:57;;;;;;;14.40;3.03;;;17.20;19.90;;;;;;5067163;28;20413;-74
2022/11/02 12:22:37;;;;;;;15.52;3.40;;;17.10;19.90;;;;;;5062965;28;20396;-74
2022/11/02 12:25:13;;;;;;;21.30;3.30;;;17.00;20.20;;;;;;5054935;28;20874;-74
2022/11/02 12:28:03;;;;;;;17.13;3.22;;;17.10;20.50;;;;;;5054752;28;20374;-75
2022/11/02 12:30:37;;;;;;;16.52;3.42;;;16.80;21.30;;;;;;5055053;28;20377;-74
2022/11/02 12:33:05;;;;;;;16.10;3.43;;;16.60;22.30;;;;;;5056422;28;20370;-76
2022/11/02 12:35:39;;;;;;;17.08;3.65;;;16.40;23.30;;;;;;5059458;28;20855;-73
2022/11/02 12:38:45;;;;;;;17.23;3.60;;;16.30;23.90;;;;;;5060987;28;20400;-75
2022/11/02 12:41:28;;;;;;;26.70;4.90;;;16.00;24.90;;;;;;5064634;28;20500;-74
2022/11/02 12:44:18;;;;;;;17.48;3.45;;;15.80;25.50;;;;;;5052921;28;20381;-74
2022/11/02 12:47:06;;;;;;;15.60;3.30;;;15.80;26.30;;;;;;5052030;28;20378;-74
2022/11/02 12:50:02;;;;;;;18.08;4.28;;;15.70;26.70;;;;;;5052667;28;20896;-74
2022/11/02 12:52:56;;;;;;;18.40;4.00;;;15.70;27.20;;;;;;5051171;28;20425;-73
2022/11/02 12:55:32;;;;;;;16.88;3.42;;;15.80;26.60;;;;;;5054917;28;20384;-74
2022/11/02 12:58:05;;;;;;;20.70;3.85;;;15.80;26.10;;;;;;5056291;28;20902;-74
2022/11/02 13:00:36;;;;;;;19.58;3.60;;;15.80;26.40;;;;;;5057140;28;20385;-75
2022/11/02 13:03:14;;;;;;;19.60;3.30;;;15.80;26.60;;;;;;5058379;28;20374;-75
2022/11/02 13:05:49;;;;;;;15.27;4.18;;;15.70;26.90;;;;;;5056007;28;20919;-78
2022/11/02 13:08:18;;;;;;;17.15;3.53;;;15.70;27.10;;;;;;5053890;28;20428;-75
2022/11/02 13:10:56;;;;;;;16.40;3.45;;;15.70;27.20;;;;;;5054750;28;20373;-75